Time;durP1;ratioP1;P1;durP2;ratioP2;P2;SDS_P1;SDS_P2;PMS_P1;PMS_P2;Temp;Humidity;BMP_temperature;BMP_pressure;BME280_temperature;BME280_humidity;BME280_pressure;Samples;Min_cycle;Max_cycle;Signal;HPM_P1;HPM_P2
2021/08/12 00:00:14;;;;;;;0.15;0.00;;;;;;;;;;5037998;28;20132;-68
2021/08/12 00:02:41;;;;;;;0.20;0.05;;;;;;;;;;5051247;28;20486;-67
2021/08/12 00:05:09;;;;;;;1.75;0.10;;;;;;;;;;5038123;28;20037;-68
2021/08/12 00:07:37;;;;;;;1.08;0.00;;;;;;;;;;5051545;28;20493;-68
2021/08/12 00:10:05;;;;;;;0.90;0.10;;;;;;;;;;5045666;28;20045;-68
2021/08/12 00:12:32;;;;;;;0.00;0.00;;;;;;;;;;5056719;28;20033;-69
2021/08/12 00:14:59;;;;;;;1.55;0.13;;;;;;;;;;5036209;28;20064;-68
2021/08/12 00:17:26;;;;;;;3.72;0.15;;;;;;;;;;5049993;28;20056;-69
2021/08/12 00:19:53;;;;;;;3.20;0.10;;;;;;;;;;5050640;28;20040;-69
2021/08/12 00:22:20;;;;;;;0.30;0.10;;;;;;;;;;5050155;28;20033;-68
2021/08/12 00:24:48;;;;;;;0.22;0.00;;;;;;;;;;5054460;28;20107;-69
2021/08/12 00:27:15;;;;;;;1.30;0.52;;;;;;;;;;5035165;28;20052;-69
2021/08/12 00:29:42;;;;;;;0.85;0.10;;;;;;;;;;5054892;28;20033;-68
2021/08/12 00:32:09;;;;;;;0.85;0.00;;;;;;;;;;5052276;28;20481;-73
2021/08/12 00:34:36;;;;;;;0.68;0.00;;;;;;;;;;5058741;28;20469;-70
2021/08/12 00:37:04;;;;;;;0.20;0.00;;;;;;;;;;5035270;28;20044;-69
2021/08/12 00:39:32;;;;;;;0.65;0.20;;;;;;;;;;5074650;28;20040;-70
2021/08/12 00:41:59;;;;;;;1.65;0.20;;;;;;;;;;5071581;28;20036;-69
2021/08/12 00:44:26;;;;;;;0.90;0.10;;;;;;;;;;5074065;28;20036;-68
2021/08/12 00:46:53;;;;;;;0.43;0.10;;;;;;;;;;5054947;28;20052;-70
2021/08/12 00:49:21;;;;;;;0.13;0.00;;;;;;;;;;5055349;28;20500;-68
2021/08/12 00:51:48;;;;;;;2.03;0.20;;;;;;;;;;5073898;28;20039;-69
2021/08/12 00:54:15;;;;;;;0.05;0.00;;;;;;;;;;5053100;28;20079;-69
2021/08/12 00:56:43;;;;;;;0.43;0.20;;;;;;;;;;5074147;28;20044;-69
2021/08/12 00:59:10;;;;;;;0.22;0.05;;;;;;;;;;5037753;28;20079;-69
2021/08/12 01:01:37;;;;;;;0.52;0.00;;;;;;;;;;5054194;28;20029;-68
2021/08/12 01:04:08;;;;;;;0.80;0.10;;;;;;;;;;5069596;28;20071;-70
2021/08/12 01:06:48;;;;;;;0.90;0.20;;;;;;;;;;5073967;28;20083;-68
2021/08/12 01:09:22;;;;;;;1.00;0.52;;;;;;;;;;5054985;28;20397;-69
2021/08/12 01:11:51;;;;;;;0.25;0.10;;;;;;;;;;5050318;28;20111;-69
2021/08/12 01:14:24;;;;;;;0.20;0.08;;;;;;;;;;5054086;28;20107;-68
2021/08/12 01:17:06;;;;;;;0.52;0.10;;;;;;;;;;5048340;28;20033;-69
2021/08/12 01:19:51;;;;;;;0.68;0.05;;;;;;;;;;5047069;28;20037;-68
2021/08/12 01:22:22;;;;;;;0.57;0.10;;;;;;;;;;5032636;28;20508;-68
2021/08/12 01:24:56;;;;;;;0.20;0.00;;;;;;;;;;5037813;28;20032;-68
2021/08/12 01:27:28;;;;;;;0.80;0.05;;;;;;;;;;5049629;28;20041;-69
2021/08/12 01:30:07;;;;;;;2.65;0.20;;;;;;;;;;5040613;28;20036;-69
2021/08/12 01:32:41;;;;;;;0.22;0.00;;;;;;;;;;5035832;28;20048;-68
2021/08/12 01:35:14;;;;;;;0.75;0.17;;;;;;;;;;5053133;28;20474;-70
2021/08/12 01:37:53;;;;;;;3.88;0.50;;;;;;;;;;5049634;28;20430;-68
2021/08/12 01:40:21;;;;;;;0.80;0.25;;;;;;;;;;5053073;28;20087;-68
2021/08/12 01:42:49;;;;;;;1.52;0.08;;;;;;;;;;5034164;28;20036;-68
2021/08/12 01:45:17;;;;;;;2.20;0.08;;;;;;;;;;5030161;28;20053;-69
2021/08/12 01:47:45;;;;;;;2.35;0.30;;;;;;;;;;5049917;28;20029;-68
2021/08/12 01:50:14;;;;;;;0.00;0.00;;;;;;;;;;5045363;28;20173;-69
2021/08/12 01:52:42;;;;;;;1.27;0.13;;;;;;;;;;5032305;28;20044;-69
2021/08/12 01:55:10;;;;;;;1.10;0.20;;;;;;;;;;5052716;28;20386;-69
2021/08/12 01:57:40;;;;;;;0.57;0.10;;;;;;;;;;5047660;28;20060;-68
2021/08/12 02:00:07;;;;;;;0.85;0.20;;;;;;;;;;5050795;28;20045;-67
2021/08/12 02:02:35;;;;;;;1.00;0.10;;;;;;;;;;5052064;28;20121;-67
2021/08/12 02:05:03;;;;;;;1.88;0.20;;;;;;;;;;5051412;28;20474;-68
2021/08/12 02:07:31;;;;;;;1.20;0.10;;;;;;;;;;5050239;28;20401;-67
2021/08/12 02:09:58;;;;;;;1.70;0.10;;;;;;;;;;5047528;28;20033;-69
2021/08/12 02:12:25;;;;;;;0.57;0.10;;;;;;;;;;5050946;28;20075;-68
2021/08/12 02:14:52;;;;;;;1.05;0.13;;;;;;;;;;5029925;28;20046;-67
2021/08/12 02:17:20;;;;;;;1.60;0.20;;;;;;;;;;5054960;28;20037;-67
2021/08/12 02:19:47;;;;;;;0.55;0.03;;;;;;;;;;5052895;28;20190;-68
2021/08/12 02:22:17;;;;;;;0.82;0.15;;;;;;;;;;5051007;28;20060;-69
2021/08/12 02:24:50;;;;;;;0.63;0.30;;;;;;;;;;5052775;28;20573;-67
2021/08/12 02:27:20;;;;;;;0.38;0.00;;;;;;;;;;5049960;28;20063;-67
2021/08/12 02:29:49;;;;;;;1.13;0.10;;;;;;;;;;5051708;28;20029;-68
2021/08/12 02:32:17;;;;;;;0.10;0.03;;;;;;;;;;5029228;28;20055;-68
2021/08/12 02:34:44;;;;;;;1.08;0.10;;;;;;;;;;5034895;28;20620;-68
2021/08/12 02:37:17;;;;;;;0.10;0.10;;;;;;;;;;5050776;28;20140;-69
2021/08/12 02:39:45;;;;;;;0.20;0.10;;;;;;;;;;5050644;28;20076;-67
2021/08/12 02:42:12;;;;;;;0.82;0.10;;;;;;;;;;5031168;28;20043;-68
2021/08/12 02:44:41;;;;;;;1.35;0.50;;;;;;;;;;5044645;28;20385;-68
2021/08/12 02:47:09;;;;;;;0.93;0.20;;;;;;;;;;5042591;28;20113;-67
2021/08/12 02:49:40;;;;;;;1.17;0.10;;;;;;;;;;5051026;28;20140;-68
2021/08/12 02:52:07;;;;;;;0.32;0.10;;;;;;;;;;5049729;28;20036;-67
2021/08/12 02:54:35;;;;;;;0.50;0.10;;;;;;;;;;5038751;28;20036;-68
2021/08/12 02:57:03;;;;;;;1.00;0.20;;;;;;;;;;5041919;28;20028;-67
2021/08/12 02:59:30;;;;;;;0.50;0.10;;;;;;;;;;5053018;28;20087;-67
2021/08/12 03:01:58;;;;;;;1.75;0.10;;;;;;;;;;5048809;28;20389;-68
2021/08/12 03:04:26;;;;;;;0.55;0.10;;;;;;;;;;5050729;28;20036;-68
2021/08/12 03:07:00;;;;;;;0.13;0.00;;;;;;;;;;5056472;28;20040;-69
2021/08/12 03:09:29;;;;;;;1.33;0.20;;;;;;;;;;5045230;28;20041;-68
2021/08/12 03:11:59;;;;;;;0.80;0.20;;;;;;;;;;5047274;28;20040;-69
2021/08/12 03:14:30;;;;;;;0.90;0.25;;;;;;;;;;5047475;28;20033;-67
2021/08/12 03:16:57;;;;;;;2.35;0.45;;;;;;;;;;5048215;28;20067;-67
2021/08/12 03:19:25;;;;;;;0.10;0.03;;;;;;;;;;5038300;28;20443;-69
2021/08/12 03:22:09;;;;;;;0.88;0.30;;;;;;;;;;5048328;28;20094;-69
2021/08/12 03:24:37;;;;;;;0.00;0.00;;;;;;;;;;5049521;28;20509;-68
2021/08/12 03:27:07;;;;;;;0.50;0.15;;;;;;;;;;5049456;28;20116;-68
2021/08/12 03:29:34;;;;;;;0.40;0.10;;;;;;;;;;5061124;28;20036;-68
2021/08/12 03:32:01;;;;;;;1.00;0.10;;;;;;;;;;5049999;28;21099;-69
2021/08/12 03:34:28;;;;;;;1.33;0.20;;;;;;;;;;5048190;28;20115;-68
2021/08/12 03:36:55;;;;;;;1.40;0.10;;;;;;;;;;5048620;28;20036;-67
2021/08/12 03:39:22;;;;;;;2.15;0.20;;;;;;;;;;5047692;28;20033;-69
2021/08/12 03:41:50;;;;;;;4.05;1.27;;;;;;;;;;5052535;28;20025;-65
2021/08/12 03:44:18;;;;;;;0.60;0.10;;;;;;;;;;5073325;28;20024;-68
2021/08/12 03:46:45;;;;;;;1.60;0.40;;;;;;;;;;5040375;28;20482;-68
2021/08/12 03:49:13;;;;;;;2.08;0.10;;;;;;;;;;5051803;28;20057;-69
2021/08/12 03:51:40;;;;;;;0.88;0.13;;;;;;;;;;5054001;28;20076;-68
2021/08/12 03:54:07;;;;;;;1.77;0.15;;;;;;;;;;5052851;28;20408;-69
2021/08/12 03:56:34;;;;;;;0.65;0.10;;;;;;;;;;5054004;28;20039;-68
2021/08/12 03:59:02;;;;;;;0.82;0.10;;;;;;;;;;5051886;28;20072;-68
2021/08/12 04:01:30;;;;;;;1.17;0.10;;;;;;;;;;5055582;28;20497;-67
2021/08/12 04:03:57;;;;;;;0.73;0.10;;;;;;;;;;5052518;28;20472;-67
2021/08/12 04:06:24;;;;;;;0.65;0.10;;;;;;;;;;5051458;28;20467;-69
2021/08/12 04:08:51;;;;;;;2.38;0.30;;;;;;;;;;5049388;28;20087;-68
2021/08/12 04:11:18;;;;;;;0.93;0.20;;;;;;;;;;5053523;28;20102;-66
2021/08/12 04:13:45;;;;;;;0.95;0.08;;;;;;;;;;5048731;28;20033;-67
2021/08/12 04:16:13;;;;;;;0.38;0.10;;;;;;;;;;5052729;28;20087;-68
2021/08/12 04:18:40;;;;;;;0.60;0.00;;;;;;;;;;5051830;28;20033;-68
2021/08/12 04:21:08;;;;;;;0.93;0.10;;;;;;;;;;5051191;28;20037;-67
2021/08/12 04:23:35;;;;;;;0.63;0.10;;;;;;;;;;5052597;28;20064;-68
2021/08/12 04:26:02;;;;;;;1.08;0.10;;;;;;;;;;5050153;28;20384;-67
2021/08/12 04:28:29;;;;;;;0.73;0.03;;;;;;;;;;5034385;28;20040;-67
2021/08/12 04:30:56;;;;;;;0.63;0.00;;;;;;;;;;5052425;28;20095;-68
2021/08/12 04:33:24;;;;;;;0.70;0.17;;;;;;;;;;5051535;28;20489;-67
2021/08/12 04:35:51;;;;;;;0.75;0.10;;;;;;;;;;5054691;28;20041;-67
2021/08/12 04:38:18;;;;;;;0.82;0.10;;;;;;;;;;5052144;28;20051;-68
2021/08/12 04:40:45;;;;;;;0.68;0.20;;;;;;;;;;5051561;28;20148;-69
2021/08/12 04:43:12;;;;;;;1.13;0.00;;;;;;;;;;5056864;28;20634;-68
2021/08/12 04:45:39;;;;;;;0.57;0.10;;;;;;;;;;5055269;28;20070;-67
2021/08/12 04:48:06;;;;;;;1.63;0.17;;;;;;;;;;5050071;28;20057;-68
2021/08/12 04:50:38;;;;;;;1.95;0.20;;;;;;;;;;5047235;28;20060;-67
2021/08/12 04:53:05;;;;;;;1.83;0.10;;;;;;;;;;5057316;28;20025;-67
2021/08/12 04:55:33;;;;;;;0.50;0.17;;;;;;;;;;5053136;28;20032;-67
2021/08/12 04:58:00;;;;;;;1.35;0.08;;;;;;;;;;5043171;28;20095;-68
2021/08/12 05:00:27;;;;;;;0.85;0.10;;;;;;;;;;5034102;28;20513;-67
2021/08/12 05:02:54;;;;;;;1.33;0.20;;;;;;;;;;5028782;28;20037;-70
2021/08/12 05:05:21;;;;;;;1.17;0.15;;;;;;;;;;5044245;28;20074;-69
2021/08/12 05:07:48;;;;;;;0.85;0.20;;;;;;;;;;5055726;28;20478;-68
2021/08/12 05:10:15;;;;;;;0.20;0.10;;;;;;;;;;5052497;28;20048;-68
2021/08/12 05:12:42;;;;;;;5.93;0.35;;;;;;;;;;5048532;28;20124;-68
2021/08/12 05:15:10;;;;;;;0.40;0.10;;;;;;;;;;5048847;28;20441;-68
2021/08/12 05:17:37;;;;;;;0.90;0.10;;;;;;;;;;5050295;28;20057;-69
2021/08/12 05:20:05;;;;;;;0.93;0.10;;;;;;;;;;5034344;28;20436;-68
2021/08/12 05:22:32;;;;;;;2.05;0.00;;;;;;;;;;5047611;28;20040;-67
2021/08/12 05:24:59;;;;;;;0.65;0.20;;;;;;;;;;5046236;28;20148;-68
2021/08/12 05:27:26;;;;;;;0.57;0.10;;;;;;;;;;5047827;28;20056;-67
2021/08/12 05:29:53;;;;;;;1.95;0.10;;;;;;;;;;5071298;28;20036;-67
2021/08/12 05:32:20;;;;;;;0.45;0.03;;;;;;;;;;5070737;28;20091;-67
2021/08/12 05:34:48;;;;;;;0.73;0.10;;;;;;;;;;5053057;28;20040;-67
2021/08/12 05:37:15;;;;;;;0.68;0.20;;;;;;;;;;5043375;28;20477;-67
2021/08/12 05:39:42;;;;;;;2.65;0.10;;;;;;;;;;5054668;28;20044;-67
2021/08/12 05:42:09;;;;;;;1.30;0.20;;;;;;;;;;5050471;28;20055;-67
2021/08/12 05:44:36;;;;;;;5.47;0.30;;;;;;;;;;5064532;28;20037;-67
2021/08/12 05:47:03;;;;;;;3.35;0.10;;;;;;;;;;5051101;28;20109;-67
2021/08/12 05:49:30;;;;;;;0.20;0.10;;;;;;;;;;5057789;28;20481;-67
2021/08/12 05:51:58;;;;;;;1.55;0.20;;;;;;;;;;5037279;28;20037;-67
2021/08/12 05:54:25;;;;;;;1.45;0.10;;;;;;;;;;5035535;28;20052;-68
2021/08/12 05:56:52;;;;;;;0.57;0.00;;;;;;;;;;5031880;28;20041;-68
2021/08/12 05:59:19;;;;;;;2.80;0.20;;;;;;;;;;5042848;28;20034;-68
2021/08/12 06:01:46;;;;;;;0.40;0.10;;;;;;;;;;5043711;28;20097;-68
2021/08/12 06:04:13;;;;;;;1.33;0.10;;;;;;;;;;5050121;28;20051;-66
2021/08/12 06:06:40;;;;;;;0.35;0.10;;;;;;;;;;5037342;28;20490;-68
2021/08/12 06:09:08;;;;;;;1.48;0.10;;;;;;;;;;5033909;28;20039;-66
2021/08/12 06:11:35;;;;;;;0.57;0.13;;;;;;;;;;5052153;28;20094;-66
2021/08/12 06:14:02;;;;;;;0.70;0.20;;;;;;;;;;5049712;28;20028;-66
2021/08/12 06:16:29;;;;;;;0.90;0.17;;;;;;;;;;5051591;28;20111;-67
2021/08/12 06:18:56;;;;;;;1.50;0.20;;;;;;;;;;5049324;28;20035;-66
2021/08/12 06:21:24;;;;;;;1.60;0.22;;;;;;;;;;5044472;28;20458;-66
2021/08/12 06:23:54;;;;;;;2.42;0.20;;;;;;;;;;5040436;28;20092;-66
2021/08/12 06:26:21;;;;;;;2.03;0.30;;;;;;;;;;5050378;28;20503;-66
2021/08/12 06:28:50;;;;;;;1.05;0.40;;;;;;;;;;5039664;28;20145;-66
2021/08/12 06:31:17;;;;;;;1.50;0.43;;;;;;;;;;5050694;28;20406;-66
2021/08/12 06:33:44;;;;;;;1.13;0.28;;;;;;;;;;5051778;28;20048;-66
2021/08/12 06:36:11;;;;;;;1.45;0.30;;;;;;;;;;5045276;28;20075;-66
2021/08/12 06:38:39;;;;;;;0.32;0.10;;;;;;;;;;5039016;28;20044;-66
2021/08/12 06:41:06;;;;;;;1.55;0.22;;;;;;;;;;5048972;28;20041;-67
2021/08/12 06:43:33;;;;;;;9.00;5.05;;;;;;;;;;5026799;28;20123;-67
2021/08/12 06:46:00;;;;;;;3.13;1.63;;;;;;;;;;5051477;28;20056;-65
2021/08/12 06:48:27;;;;;;;1.95;0.55;;;;;;;;;;5040056;28;20041;-66
2021/08/12 06:50:55;;;;;;;2.97;1.17;;;;;;;;;;5042654;28;20120;-66
2021/08/12 06:53:22;;;;;;;1.67;1.02;;;;;;;;;;5033783;28;20047;-66
2021/08/12 06:55:49;;;;;;;1.75;0.30;;;;;;;;;;5049448;28;20025;-66
2021/08/12 06:58:16;;;;;;;1.38;0.55;;;;;;;;;;5047959;28;20068;-67
2021/08/12 07:00:43;;;;;;;2.50;0.20;;;;;;;;;;5044242;28;20037;-67
2021/08/12 07:03:10;;;;;;;1.67;0.30;;;;;;;;;;5054339;28;20386;-67
2021/08/12 07:05:37;;;;;;;2.63;0.38;;;;;;;;;;5055083;28;20064;-67
2021/08/12 07:08:05;;;;;;;1.92;0.60;;;;;;;;;;5045508;28;20399;-67
2021/08/12 07:10:33;;;;;;;3.15;0.38;;;;;;;;;;5048558;28;20029;-67
2021/08/12 07:13:00;;;;;;;2.58;0.40;;;;;;;;;;5056653;28;20020;-67
2021/08/12 07:15:27;;;;;;;7.10;0.82;;;;;;;;;;5031482;28;20178;-67
2021/08/12 07:17:54;;;;;;;2.42;0.40;;;;;;;;;;5056178;28;20432;-68
2021/08/12 07:20:21;;;;;;;2.08;0.30;;;;;;;;;;5065374;28;20049;-67
2021/08/12 07:22:48;;;;;;;3.00;0.65;;;;;;;;;;5058844;28;20037;-68
2021/08/12 07:25:16;;;;;;;4.50;0.40;;;;;;;;;;5043158;28;20346;-67
2021/08/12 07:27:45;;;;;;;1.70;0.45;;;;;;;;;;5051200;28;20029;-68
2021/08/12 07:30:12;;;;;;;2.20;0.50;;;;;;;;;;5050789;28;20489;-68
2021/08/12 07:32:39;;;;;;;3.28;0.50;;;;;;;;;;5054803;28;20035;-68
2021/08/12 07:35:08;;;;;;;3.63;0.45;;;;;;;;;;5043391;28;20029;-67
2021/08/12 07:37:35;;;;;;;2.85;0.43;;;;;;;;;;5049769;28;20101;-67
2021/08/12 07:40:03;;;;;;;1.73;0.30;;;;;;;;;;5050136;28;20041;-67
2021/08/12 07:42:30;;;;;;;1.60;0.40;;;;;;;;;;5050135;28;20037;-67
2021/08/12 07:45:00;;;;;;;0.60;0.28;;;;;;;;;;5045018;28;20045;-67
2021/08/12 07:47:29;;;;;;;1.40;0.40;;;;;;;;;;5031182;28;20446;-67
2021/08/12 07:50:00;;;;;;;1.92;0.30;;;;;;;;;;5031101;28;20037;-67
2021/08/12 07:52:27;;;;;;;2.10;0.40;;;;;;;;;;5037704;28;20113;-67
2021/08/12 07:54:54;;;;;;;3.30;0.50;;;;;;;;;;5052009;28;20031;-68
2021/08/12 07:57:21;;;;;;;1.48;0.40;;;;;;;;;;5051203;28;20037;-68
2021/08/12 07:59:48;;;;;;;2.70;0.40;;;;;;;;;;5057858;28;20041;-67
2021/08/12 08:02:16;;;;;;;3.45;0.50;;;;;;;;;;5046144;28;20034;-68
2021/08/12 08:04:43;;;;;;;3.95;0.50;;;;;;;;;;5040960;28;20037;-67
2021/08/12 08:07:10;;;;;;;2.88;0.50;;;;;;;;;;5042459;28;20049;-67
2021/08/12 08:09:37;;;;;;;2.47;0.90;;;;;;;;;;5034698;28;20036;-67
2021/08/12 08:12:05;;;;;;;2.88;0.40;;;;;;;;;;5047012;28;20052;-67
2021/08/12 08:14:32;;;;;;;6.32;1.05;;;;;;;;;;5050794;28;20032;-67
2021/08/12 08:16:59;;;;;;;2.22;0.50;;;;;;;;;;5053249;28;20090;-67
2021/08/12 08:19:29;;;;;;;4.22;0.60;;;;;;;;;;5029044;28;20068;-67
2021/08/12 08:21:56;;;;;;;1.80;0.50;;;;;;;;;;5047219;28;20032;-66
2021/08/12 08:24:23;;;;;;;4.07;0.55;;;;;;;;;;5046349;28;20044;-67
2021/08/12 08:26:50;;;;;;;4.97;0.93;;;;;;;;;;5046063;28;20025;-66
2021/08/12 08:29:17;;;;;;;2.08;0.88;;;;;;;;;;5045527;28;20036;-66
2021/08/12 08:31:46;;;;;;;4.90;0.60;;;;;;;;;;5052129;28;20037;-67
2021/08/12 08:34:13;;;;;;;6.22;1.02;;;;;;;;;;5060437;28;20040;-69
2021/08/12 08:36:40;;;;;;;1.98;0.80;;;;;;;;;;5054129;28;20029;-68
2021/08/12 08:39:09;;;;;;;3.28;0.60;;;;;;;;;;5051928;28;20030;-65
2021/08/12 08:41:36;;;;;;;2.55;0.65;;;;;;;;;;5039857;28;20044;-68
2021/08/12 08:44:04;;;;;;;3.38;0.68;;;;;;;;;;5069131;28;20037;-68
2021/08/12 08:46:31;;;;;;;4.43;0.60;;;;;;;;;;5064591;28;20106;-67
2021/08/12 08:48:59;;;;;;;7.25;0.90;;;;;;;;;;5038656;28;20044;-67
2021/08/12 08:51:27;;;;;;;2.47;0.68;;;;;;;;;;5073969;28;20075;-67
2021/08/12 08:53:55;;;;;;;2.78;0.90;;;;;;;;;;5055372;28;20037;-69
2021/08/12 08:56:23;;;;;;;2.95;0.85;;;;;;;;;;5050861;28;20409;-67
2021/08/12 08:58:51;;;;;;;2.72;1.02;;;;;;;;;;5055038;28;20025;-67
2021/08/12 09:01:18;;;;;;;3.13;1.13;;;;;;;;;;5052028;28;20034;-68
2021/08/12 09:03:45;;;;;;;3.80;1.50;;;;;;;;;;5038354;28;20093;-67
2021/08/12 09:06:13;;;;;;;3.47;1.45;;;;;;;;;;5055258;28;20049;-66
2021/08/12 09:08:41;;;;;;;2.75;1.05;;;;;;;;;;5052039;28;20037;-66
2021/08/12 09:11:08;;;;;;;3.45;0.75;;;;;;;;;;5055153;28;20036;-67
2021/08/12 09:13:35;;;;;;;3.72;0.90;;;;;;;;;;5048909;28;20048;-67
2021/08/12 09:16:02;;;;;;;2.80;0.75;;;;;;;;;;5052794;28;20374;-67
2021/08/12 09:18:30;;;;;;;3.78;1.10;;;;;;;;;;5059367;28;20039;-66
2021/08/12 09:20:58;;;;;;;3.05;0.80;;;;;;;;;;5052427;28;20091;-67
2021/08/12 09:23:30;;;;;;;5.20;2.13;;;;;;;;;;5052077;28;20021;-67
2021/08/12 09:25:58;;;;;;;8.77;1.90;;;;;;;;;;5047545;28;20163;-68
2021/08/12 09:28:27;;;;;;;6.88;2.10;;;;;;;;;;5059475;28;20063;-66
2021/08/12 09:31:00;;;;;;;5.10;1.92;;;;;;;;;;5058985;28;20086;-67
2021/08/12 09:33:36;;;;;;;3.23;1.60;;;;;;;;;;5054176;28;20024;-67
2021/08/12 09:36:04;;;;;;;5.07;3.10;;;;;;;;;;5067271;28;20036;-67
2021/08/12 09:38:31;;;;;;;8.43;3.88;;;;;;;;;;5055699;28;20495;-69
2021/08/12 09:41:00;;;;;;;9.50;3.63;;;;;;;;;;5041549;28;20191;-69
2021/08/12 09:43:35;;;;;;;10.48;3.17;;;;;;;;;;5049798;28;20029;-69
2021/08/12 09:46:02;;;;;;;5.60;2.67;;;;;;;;;;5050119;28;20029;-69
2021/08/12 09:48:29;;;;;;;3.97;2.10;;;;;;;;;;5062081;28;20040;-69
2021/08/12 09:51:06;;;;;;;5.88;2.00;;;;;;;;;;5071066;28;20040;-68
2021/08/12 09:53:33;;;;;;;4.30;3.03;;;;;;;;;;5063014;28;20382;-68
2021/08/12 09:56:10;;;;;;;11.27;3.00;;;;;;;;;;5071134;28;20088;-67
2021/08/12 09:58:38;;;;;;;6.43;2.28;;;;;;;;;;5049570;28;20037;-68
2021/08/12 10:01:25;;;;;;;9.35;4.10;;;;;;;;;;5052739;28;20184;-69
2021/08/12 10:03:54;;;;;;;15.02;4.45;;;;;;;;;;5054253;28;20068;-68
2021/08/12 10:06:30;;;;;;;9.82;3.67;;;;;;;;;;5032537;28;20076;-67
2021/08/12 10:08:57;;;;;;;6.55;2.45;;;;;;;;;;5059443;28;20032;-68
2021/08/12 10:11:26;;;;;;;6.97;1.90;;;;;;;;;;5057914;28;20119;-67
2021/08/12 10:13:55;;;;;;;7.38;2.60;;;;;;;;;;5030984;28;20515;-69
2021/08/12 10:16:22;;;;;;;6.43;3.63;;;;;;;;;;5045149;28;20087;-69
2021/08/12 10:18:50;;;;;;;11.30;4.60;;;;;;;;;;5050880;28;20045;-69
2021/08/12 10:21:18;;;;;;;7.82;4.53;;;;;;;;;;5050527;28;20124;-71
2021/08/12 10:23:47;;;;;;;8.18;4.50;;;;;;;;;;5049665;28;20398;-70
2021/08/12 10:26:14;;;;;;;8.45;3.05;;;;;;;;;;5051312;28;20087;-70
2021/08/12 10:28:43;;;;;;;7.65;2.90;;;;;;;;;;5049446;28;20037;-69
2021/08/12 10:31:14;;;;;;;14.30;4.10;;;;;;;;;;5050383;28;20076;-69
2021/08/12 10:33:41;;;;;;;14.32;4.22;;;;;;;;;;5050629;28;20536;-68
2021/08/12 10:36:08;;;;;;;11.38;3.47;;;;;;;;;;5051718;28;20127;-69
2021/08/12 10:38:36;;;;;;;8.57;3.22;;;;;;;;;;5050464;28;20071;-69
2021/08/12 10:41:03;;;;;;;12.93;4.55;;;;;;;;;;5049414;28;20044;-69
2021/08/12 10:43:31;;;;;;;9.52;3.20;;;;;;;;;;5035948;28;20053;-68
2021/08/12 10:45:59;;;;;;;4.95;2.15;;;;;;;;;;5045318;28;20133;-70
2021/08/12 10:48:28;;;;;;;3.83;1.40;;;;;;;;;;5050552;28;20189;-69
2021/08/12 10:51:12;;;;;;;5.30;2.45;;;;;;;;;;5051378;28;20029;-69
2021/08/12 10:53:43;;;;;;;3.67;1.95;;;;;;;;;;5049376;28;20033;-69
2021/08/12 10:56:11;;;;;;;10.80;2.42;;;;;;;;;;5028864;28;20156;-69
2021/08/12 10:58:40;;;;;;;24.40;5.60;;;;;;;;;;5032381;28;20061;-70
2021/08/12 11:01:09;;;;;;;17.17;4.50;;;;;;;;;;5051396;28;20033;-69
2021/08/12 11:03:47;;;;;;;10.48;3.28;;;;;;;;;;5051654;28;20830;-68
2021/08/12 11:06:16;;;;;;;14.23;4.25;;;;;;;;;;5042854;28;20355;-69
2021/08/12 11:08:53;;;;;;;10.05;3.38;;;;;;;;;;5050397;28;20069;-68
2021/08/12 11:11:23;;;;;;;10.57;3.33;;;;;;;;;;5050895;28;20029;-69
2021/08/12 11:13:51;;;;;;;9.80;3.10;;;;;;;;;;5050390;28;20068;-69
2021/08/12 11:16:19;;;;;;;12.20;3.97;;;;;;;;;;5043679;28;20041;-69
2021/08/12 11:18:46;;;;;;;9.32;3.88;;;;;;;;;;5051256;28;20029;-69
2021/08/12 11:21:31;;;;;;;8.80;4.05;;;;;;;;;;5050372;28;20037;-68
2021/08/12 11:23:59;;;;;;;8.27;3.33;;;;;;;;;;5047987;28;20032;-68
2021/08/12 11:26:27;;;;;;;8.23;3.10;;;;;;;;;;5047156;28;20033;-68
2021/08/12 11:28:57;;;;;;;5.03;2.25;;;;;;;;;;5048205;28;20033;-68
2021/08/12 11:31:24;;;;;;;6.78;2.80;;;;;;;;;;5030652;28;20119;-68
2021/08/12 11:33:52;;;;;;;3.15;1.83;;;;;;;;;;5049436;28;20033;-68
2021/08/12 11:36:19;;;;;;;6.50;2.40;;;;;;;;;;5049672;28;20040;-69
2021/08/12 11:38:51;;;;;;;4.93;1.88;;;;;;;;;;5047906;28;20248;-68
2021/08/12 11:41:18;;;;;;;5.15;2.40;;;;;;;;;;5052608;28;20128;-69
2021/08/12 11:43:46;;;;;;;6.80;2.78;;;;;;;;;;5050694;28;20132;-68
2021/08/12 11:46:14;;;;;;;5.13;2.30;;;;;;;;;;5045490;28;20112;-68
2021/08/12 11:48:41;;;;;;;7.07;2.72;;;;;;;;;;5041942;28;20391;-69
2021/08/12 11:51:08;;;;;;;11.45;4.53;;;;;;;;;;5051737;28;20084;-68
2021/08/12 11:53:43;;;;;;;7.45;4.55;;;;;;;;;;5041984;28;20040;-68
2021/08/12 11:56:16;;;;;;;6.35;3.72;;;;;;;;;;5035239;28;20120;-68
2021/08/12 11:58:44;;;;;;;9.07;3.53;;;;;;;;;;5046382;28;20041;-68
2021/08/12 12:01:12;;;;;;;7.90;3.15;;;;;;;;;;5039276;28;20506;-68
2021/08/12 12:03:40;;;;;;;8.18;3.20;;;;;;;;;;5051843;28;20086;-69
2021/08/12 12:06:07;;;;;;;8.75;4.30;;;;;;;;;;5051503;28;20044;-68
2021/08/12 12:08:34;;;;;;;7.30;4.20;;;;;;;;;;5053686;28;20025;-68
2021/08/12 12:11:08;;;;;;;7.68;3.55;;;;;;;;;;5053782;28;20041;-69
2021/08/12 12:13:35;;;;;;;5.95;3.15;;;;;;;;;;5054352;28;20040;-67
2021/08/12 12:16:09;;;;;;;8.43;3.47;;;;;;;;;;5063046;28;20389;-68
2021/08/12 12:18:37;;;;;;;7.57;3.00;;;;;;;;;;5036145;28;20086;-68
2021/08/12 12:21:09;;;;;;;4.68;2.60;;;;;;;;;;5024453;28;20046;-68
2021/08/12 12:23:37;;;;;;;5.85;3.10;;;;;;;;;;5051061;28;20459;-67
2021/08/12 12:26:04;;;;;;;7.22;2.90;;;;;;;;;;5053080;28;20060;-68
2021/08/12 12:28:32;;;;;;;8.23;3.42;;;;;;;;;;5052326;28;20037;-69
2021/08/12 12:31:01;;;;;;;7.63;3.33;;;;;;;;;;5053506;28;20212;-69
2021/08/12 12:33:28;;;;;;;6.32;3.15;;;;;;;;;;5052713;28;20028;-68
2021/08/12 12:35:55;;;;;;;5.32;2.88;;;;;;;;;;5049886;28;20026;-68
2021/08/12 12:38:25;;;;;;;6.55;2.60;;;;;;;;;;5051320;28;20065;-69
2021/08/12 12:40:53;;;;;;;5.93;3.10;;;;;;;;;;5050607;28;20037;-68
2021/08/12 12:43:20;;;;;;;22.13;12.70;;;;;;;;;;5054075;28;20083;-68
2021/08/12 12:45:52;;;;;;;13.95;8.13;;;;;;;;;;5053466;28;20021;-68
2021/08/12 12:48:27;;;;;;;15.93;7.40;;;;;;;;;;5049119;28;20052;-68
2021/08/12 12:50:54;;;;;;;7.05;3.85;;;;;;;;;;5052945;28;20509;-68
2021/08/12 12:53:29;;;;;;;7.20;2.95;;;;;;;;;;5053182;28;20041;-69
2021/08/12 12:55:56;;;;;;;4.90;1.77;;;;;;;;;;5050224;28;20036;-67
2021/08/12 12:58:24;;;;;;;4.10;1.95;;;;;;;;;;5051802;28;20025;-68
2021/08/12 13:01:07;;;;;;;4.03;1.50;;;;;;;;;;5049415;28;20033;-69
2021/08/12 13:03:41;;;;;;;7.47;1.80;;;;;;;;;;5051266;28;20500;-69
2021/08/12 13:06:09;;;;;;;4.13;1.45;;;;;;;;;;5049903;28;20079;-68
2021/08/12 13:08:50;;;;;;;3.90;1.10;;;;;;;;;;5052287;28;20033;-69
2021/08/12 13:11:18;;;;;;;4.05;1.50;;;;;;;;;;5051302;28;20033;-68
2021/08/12 13:13:47;;;;;;;5.93;1.35;;;;;;;;;;5059919;28;20092;-69
2021/08/12 13:16:16;;;;;;;4.07;2.00;;;;;;;;;;5044831;28;20116;-69
2021/08/12 13:18:54;;;;;;;2.97;1.73;;;;;;;;;;5042557;28;20033;-68
2021/08/12 13:21:27;;;;;;;3.88;1.67;;;;;;;;;;5040515;28;20045;-69
2021/08/12 13:23:55;;;;;;;4.32;1.23;;;;;;;;;;5051986;28;20083;-68
2021/08/12 13:26:35;;;;;;;3.03;1.20;;;;;;;;;;5052919;28;20091;-68
2021/08/12 13:29:25;;;;;;;4.03;1.10;;;;;;;;;;5049980;28;20025;-68
2021/08/12 13:31:53;;;;;;;4.70;1.30;;;;;;;;;;5049253;28;20118;-68
2021/08/12 13:34:21;;;;;;;3.53;0.93;;;;;;;;;;5048155;28;20029;-68
2021/08/12 13:36:48;;;;;;;4.28;1.58;;;;;;;;;;5051790;28;20111;-67
2021/08/12 13:39:16;;;;;;;4.57;1.15;;;;;;;;;;5051373;28;20143;-68
2021/08/12 13:41:49;;;;;;;4.15;1.15;;;;;;;;;;5051102;28;20053;-68
2021/08/12 13:44:17;;;;;;;3.35;1.63;;;;;;;;;;5035911;28;20107;-68
2021/08/12 13:46:44;;;;;;;4.30;1.90;;;;;;;;;;5038614;28;20044;-68
2021/08/12 13:49:11;;;;;;;3.75;1.63;;;;;;;;;;5033903;28;20032;-67
2021/08/12 13:51:39;;;;;;;5.28;1.55;;;;;;;;;;5052044;28;20033;-67
2021/08/12 13:54:06;;;;;;;6.47;1.30;;;;;;;;;;5052416;28;20453;-67
2021/08/12 13:56:33;;;;;;;4.32;1.35;;;;;;;;;;5052035;28;20440;-68
2021/08/12 13:59:00;;;;;;;5.38;1.73;;;;;;;;;;5052263;28;20373;-67
2021/08/12 14:01:29;;;;;;;4.28;1.40;;;;;;;;;;5038987;28;20128;-68
2021/08/12 14:03:56;;;;;;;4.68;1.65;;;;;;;;;;5050903;28;20056;-67
2021/08/12 14:06:24;;;;;;;4.10;2.08;;;;;;;;;;5044460;28;20192;-68
2021/08/12 14:08:51;;;;;;;5.95;1.77;;;;;;;;;;5044226;28;20432;-68
2021/08/12 14:11:18;;;;;;;5.00;1.20;;;;;;;;;;5050516;28;20485;-68
2021/08/12 14:13:45;;;;;;;2.65;1.17;;;;;;;;;;5051552;28;20036;-68
2021/08/12 14:16:13;;;;;;;4.45;1.02;;;;;;;;;;5048380;28;20033;-68
2021/08/12 14:18:44;;;;;;;2.90;0.90;;;;;;;;;;5033167;28;20025;-68
2021/08/12 14:21:15;;;;;;;2.25;0.88;;;;;;;;;;5051725;28;20508;-68
2021/08/12 14:23:43;;;;;;;4.32;1.00;;;;;;;;;;5046354;28;20021;-67
2021/08/12 14:26:10;;;;;;;3.55;0.98;;;;;;;;;;5051236;28;20032;-68
2021/08/12 14:28:38;;;;;;;4.07;1.02;;;;;;;;;;5046656;28;20025;-68
2021/08/12 14:31:06;;;;;;;5.10;0.88;;;;;;;;;;5050615;28;20029;-68
2021/08/12 14:33:37;;;;;;;5.20;1.00;;;;;;;;;;5045322;28;20057;-68
2021/08/12 14:36:05;;;;;;;2.20;0.80;;;;;;;;;;5044117;28;20048;-68
2021/08/12 14:38:33;;;;;;;2.90;0.88;;;;;;;;;;5042134;28;20040;-68
2021/08/12 14:41:02;;;;;;;3.42;1.42;;;;;;;;;;5050615;28;20124;-69
2021/08/12 14:43:29;;;;;;;12.73;5.53;;;;;;;;;;5051194;28;20040;-67
2021/08/12 14:45:56;;;;;;;8.93;4.22;;;;;;;;;;5051170;28;20486;-67
2021/08/12 14:48:24;;;;;;;8.43;4.38;;;;;;;;;;5050439;28;20099;-68
2021/08/12 14:50:52;;;;;;;17.67;8.45;;;;;;;;;;5050986;28;20055;-67